Time;durP1;ratioP1;P1;durP2;ratioP2;P2;SDS_P1;SDS_P2;PMS_P1;PMS_P2;Temp;Humidity;BMP_temperature;BMP_pressure;BME280_temperature;BME280_humidity;BME280_pressure;Samples;Min_cycle;Max_cycle;Signal;HPM_P1;HPM_P2
2020/12/29 00:02:31;;;;;;;3.33;0.70;;;11.70;45.30;;;;;;7585974;23;20022;-80
2020/12/29 00:05:32;;;;;;;1.17;0.35;;;11.70;45.30;;;;;;7620289;23;20429;-79
2020/12/29 00:08:33;;;;;;;0.17;0.17;;;11.80;45.20;;;;;;7620334;23;20021;-79
2020/12/29 00:11:34;;;;;;;1.08;0.22;;;11.80;45.00;;;;;;7645184;23;20029;-79
2020/12/29 00:14:35;;;;;;;0.98;0.20;;;11.90;44.90;;;;;;7619483;23;20075;-79
2020/12/29 00:17:36;;;;;;;2.45;0.38;;;11.90;44.70;;;;;;7615784;23;20013;-80
2020/12/29 00:20:37;;;;;;;0.82;0.40;;;12.00;44.50;;;;;;7645500;23;20448;-79
2020/12/29 00:23:38;;;;;;;0.60;0.20;;;12.00;44.40;;;;;;7620201;23;20041;-81
2020/12/29 00:26:39;;;;;;;1.80;0.35;;;12.00;44.20;;;;;;7603233;23;20096;-79
2020/12/29 00:29:49;;;;;;;0.30;0.20;;;12.10;44.10;;;;;;7602608;23;20262;-81
2020/12/29 00:32:50;;;;;;;0.73;0.13;;;12.10;43.90;;;;;;7617648;23;20088;-80
2020/12/29 00:36:00;;;;;;;1.10;0.20;;;12.10;43.70;;;;;;7643120;23;20025;-80
2020/12/29 00:39:02;;;;;;;1.13;0.28;;;12.20;44.30;;;;;;7602656;23;20017;-79
2020/12/29 00:42:10;;;;;;;0.85;0.25;;;12.20;43.60;;;;;;7641193;23;20013;-79
2020/12/29 00:45:29;;;;;;;1.95;0.60;;;12.20;43.10;;;;;;7616994;23;20397;-79
2020/12/29 00:48:30;;;;;;;0.38;0.10;;;12.20;43.00;;;;;;7561126;23;20141;-79
2020/12/29 00:51:31;;;;;;;1.05;0.38;;;12.30;43.00;;;;;;7550306;23;20052;-79
2020/12/29 00:54:36;;;;;;;0.88;0.45;;;12.30;42.90;;;;;;7563453;23;20072;-79
2020/12/29 00:57:38;;;;;;;0.30;0.17;;;12.30;42.80;;;;;;7598891;23;20032;-79
2020/12/29 01:00:41;;;;;;;0.50;0.40;;;12.40;42.70;;;;;;7617066;23;20461;-80
2020/12/29 01:03:42;;;;;;;2.08;0.30;;;12.40;42.60;;;;;;7591966;23;20022;-79
2020/12/29 01:06:43;;;;;;;0.17;0.17;;;12.40;42.60;;;;;;7592612;23;20021;-80
2020/12/29 01:09:52;;;;;;;0.77;0.20;;;12.40;42.40;;;;;;7594894;23;20085;-79
2020/12/29 01:12:52;;;;;;;0.40;0.28;;;12.40;42.30;;;;;;7646261;23;20069;-80
2020/12/29 01:15:54;;;;;;;1.60;0.57;;;12.50;42.30;;;;;;7612785;23;20045;-79
2020/12/29 01:18:55;;;;;;;0.47;0.25;;;12.50;42.10;;;;;;7661388;23;20018;-78
2020/12/29 01:21:56;;;;;;;1.55;0.25;;;12.50;42.70;;;;;;7612465;23;20020;-80
2020/12/29 01:24:57;;;;;;;1.13;0.40;;;12.50;41.30;;;;;;7649413;23;20032;-78
2020/12/29 01:27:58;;;;;;;0.47;0.20;;;12.50;41.80;;;;;;7595019;23;20021;-78
2020/12/29 01:31:00;;;;;;;2.10;0.13;;;12.50;40.90;;;;;;7619141;23;20014;-81
2020/12/29 01:34:02;;;;;;;0.63;0.10;;;12.50;40.90;;;;;;7619616;23;20021;-79
2020/12/29 01:37:03;;;;;;;0.13;0.10;;;12.50;40.40;;;;;;7618955;23;20014;-79
2020/12/29 01:40:04;;;;;;;1.45;0.28;;;12.50;40.70;;;;;;7593870;23;20087;-79
2020/12/29 01:43:05;;;;;;;2.38;0.10;;;12.50;40.70;;;;;;7644265;23;20017;-79
2020/12/29 01:46:07;;;;;;;0.52;0.20;;;12.60;40.80;;;;;;7594446;23;20097;-79
2020/12/29 01:49:08;;;;;;;0.20;0.13;;;12.60;40.90;;;;;;7619277;23;20032;-78
2020/12/29 01:52:10;;;;;;;1.52;0.50;;;12.60;40.90;;;;;;7644176;23;20021;-81
2020/12/29 01:55:10;;;;;;;0.30;0.10;;;12.60;40.80;;;;;;7620564;23;20025;-81
2020/12/29 01:58:13;;;;;;;1.98;0.28;;;12.70;40.80;;;;;;7618467;23;20016;-81
2020/12/29 02:01:14;;;;;;;2.42;0.35;;;12.70;40.80;;;;;;7591738;23;20009;-79
2020/12/29 02:04:16;;;;;;;0.13;0.10;;;12.70;40.80;;;;;;7581101;23;20032;-80
2020/12/29 02:07:18;;;;;;;1.60;0.30;;;12.70;40.90;;;;;;7595914;23;20009;-79
2020/12/29 02:10:19;;;;;;;2.83;0.40;;;12.70;41.00;;;;;;7597264;23;20056;-80
2020/12/29 02:13:23;;;;;;;0.50;0.28;;;12.60;41.00;;;;;;7644890;23;20032;-79
2020/12/29 02:16:24;;;;;;;2.92;0.20;;;12.60;41.00;;;;;;7642587;23;20013;-79
2020/12/29 02:19:25;;;;;;;0.10;0.05;;;12.60;41.00;;;;;;7594140;23;20526;-80
2020/12/29 02:22:28;;;;;;;0.77;0.25;;;12.60;41.00;;;;;;7619631;23;20320;-79
2020/12/29 02:25:29;;;;;;;2.78;0.30;;;12.60;41.10;;;;;;7657000;23;20021;-79
2020/12/29 02:28:30;;;;;;;0.40;0.30;;;12.60;41.00;;;;;;7634699;23;20107;-79
2020/12/29 02:31:31;;;;;;;0.30;0.10;;;12.60;40.90;;;;;;7644142;23;20028;-79
2020/12/29 02:34:36;;;;;;;0.30;0.30;;;12.60;41.00;;;;;;7617785;23;20013;-79
2020/12/29 02:37:37;;;;;;;0.68;0.30;;;12.60;41.00;;;;;;7617757;23;20014;-79
2020/12/29 02:40:38;;;;;;;1.98;0.40;;;12.50;41.00;;;;;;7617436;23;20325;-80
2020/12/29 02:43:39;;;;;;;0.65;0.20;;;12.60;41.10;;;;;;7592893;23;20025;-79
2020/12/29 02:46:55;;;;;;;0.80;0.17;;;12.60;41.20;;;;;;7593564;23;20309;-82
2020/12/29 02:49:57;;;;;;;1.27;0.13;;;12.60;41.20;;;;;;7603282;23;20021;-79
2020/12/29 02:52:59;;;;;;;1.85;0.20;;;12.60;41.30;;;;;;7591386;23;20029;-79
2020/12/29 02:56:00;;;;;;;6.75;0.98;;;12.60;41.30;;;;;;7640673;23;20014;-78
2020/12/29 02:59:01;;;;;;;0.47;0.20;;;12.60;41.50;;;;;;7639600;23;20413;-78
2020/12/29 03:02:02;;;;;;;0.70;0.15;;;12.60;41.50;;;;;;7641889;23;20080;-81
2020/12/29 03:05:03;;;;;;;1.65;0.60;;;12.60;41.60;;;;;;7601290;23;20341;-80
2020/12/29 03:08:04;;;;;;;0.57;0.20;;;12.60;41.60;;;;;;7616361;23;20109;-80
2020/12/29 03:11:05;;;;;;;4.10;0.30;;;12.50;41.50;;;;;;7641255;23;20089;-80
2020/12/29 03:14:09;;;;;;;1.60;0.30;;;12.50;41.50;;;;;;7617001;23;20029;-79
2020/12/29 03:17:09;;;;;;;2.50;0.22;;;12.50;41.70;;;;;;7644547;23;20013;-80
2020/12/29 03:20:10;;;;;;;2.03;0.20;;;12.50;41.70;;;;;;7644461;23;20443;-79
2020/12/29 03:23:11;;;;;;;1.17;0.28;;;12.50;42.30;;;;;;7621925;23;20017;-79
2020/12/29 03:26:12;;;;;;;0.43;0.20;;;12.50;41.70;;;;;;7644168;23;20101;-79
2020/12/29 03:29:13;;;;;;;3.42;0.50;;;12.60;41.70;;;;;;7632156;23;20033;-80
2020/12/29 03:32:14;;;;;;;1.45;0.38;;;12.60;41.70;;;;;;7643294;23;20006;-79
2020/12/29 03:35:15;;;;;;;1.58;0.43;;;12.60;41.60;;;;;;7623697;23;20040;-79
2020/12/29 03:38:17;;;;;;;3.25;0.28;;;12.60;41.70;;;;;;7620182;23;20037;-79
2020/12/29 03:41:17;;;;;;;2.05;0.43;;;12.60;41.70;;;;;;7646547;23;20083;-79
2020/12/29 03:44:18;;;;;;;0.25;0.10;;;12.60;41.60;;;;;;7618572;23;20109;-79
2020/12/29 03:47:19;;;;;;;0.22;0.15;;;12.60;41.60;;;;;;7617558;23;20416;-79
2020/12/29 03:50:20;;;;;;;0.28;0.13;;;12.60;41.50;;;;;;7616942;23;20072;-80
2020/12/29 03:53:21;;;;;;;1.95;0.35;;;12.60;41.50;;;;;;7618353;23;20084;-79
2020/12/29 03:56:22;;;;;;;0.35;0.20;;;12.60;41.40;;;;;;7618433;23;20075;-81
2020/12/29 03:59:23;;;;;;;1.45;0.50;;;12.50;41.40;;;;;;7618296;23;20056;-80
2020/12/29 04:02:24;;;;;;;3.95;0.22;;;12.60;41.40;;;;;;7613570;23;20006;-81
2020/12/29 04:05:26;;;;;;;0.38;0.15;;;12.60;41.40;;;;;;7604900;23;20088;-80
2020/12/29 04:08:27;;;;;;;0.75;0.20;;;12.60;41.30;;;;;;7583062;23;20025;-80
2020/12/29 04:11:29;;;;;;;0.20;0.10;;;12.60;41.30;;;;;;7606216;23;20424;-80
2020/12/29 04:14:30;;;;;;;1.45;0.50;;;12.60;41.30;;;;;;7581439;23;20018;-80
2020/12/29 04:17:34;;;;;;;4.15;0.32;;;12.70;41.30;;;;;;7606144;23;20021;-80
2020/12/29 04:20:35;;;;;;;1.70;0.50;;;12.70;41.30;;;;;;7608136;23;20014;-80
2020/12/29 04:23:36;;;;;;;0.82;0.30;;;12.70;41.20;;;;;;7604984;23;20032;-79
2020/12/29 04:26:37;;;;;;;3.25;0.38;;;12.70;41.30;;;;;;7605736;23;20395;-80
2020/12/29 04:29:38;;;;;;;5.25;0.55;;;12.70;41.50;;;;;;7565472;23;20022;-80
2020/12/29 04:32:40;;;;;;;3.53;0.50;;;12.70;41.90;;;;;;7579264;23;20022;-80
2020/12/29 04:35:42;;;;;;;3.60;0.60;;;12.70;42.40;;;;;;7604752;23;20017;-79
2020/12/29 04:38:43;;;;;;;0.30;0.25;;;12.70;42.70;;;;;;7579632;23;20152;-80
2020/12/29 04:41:47;;;;;;;5.05;0.28;;;12.70;43.00;;;;;;7606761;23;20080;-80
2020/12/29 04:44:47;;;;;;;0.88;0.43;;;12.60;43.40;;;;;;7607370;23;20010;-80
2020/12/29 04:47:49;;;;;;;2.58;0.25;;;12.50;44.10;;;;;;7607422;23;20041;-80
2020/12/29 04:50:52;;;;;;;3.63;0.47;;;12.50;44.80;;;;;;7615752;23;20295;-79
2020/12/29 04:54:06;;;;;;;5.93;0.52;;;12.40;45.70;;;;;;7619493;23;20433;-80
2020/12/29 04:57:09;;;;;;;3.25;0.50;;;12.20;46.00;;;;;;7621511;23;20022;-79
2020/12/29 05:00:11;;;;;;;1.98;0.55;;;12.20;46.90;;;;;;7593167;23;20014;-80
2020/12/29 05:03:12;;;;;;;0.30;0.20;;;12.10;47.20;;;;;;7580395;23;20053;-80
2020/12/29 05:06:14;;;;;;;0.80;0.25;;;12.00;47.50;;;;;;7605024;23;20014;-80
2020/12/29 05:09:18;;;;;;;5.28;0.50;;;12.00;48.20;;;;;;7603108;23;20014;-79
2020/12/29 05:12:18;;;;;;;2.22;0.63;;;11.80;48.30;;;;;;7603818;23;20025;-80
2020/12/29 05:15:21;;;;;;;0.70;0.35;;;11.80;48.60;;;;;;7603669;23;20014;-80
2020/12/29 05:18:25;;;;;;;2.38;0.30;;;11.70;48.60;;;;;;7603764;23;20093;-80
2020/12/29 05:21:26;;;;;;;2.63;0.43;;;11.70;48.80;;;;;;7614051;23;20452;-80
2020/12/29 05:24:27;;;;;;;2.22;0.32;;;11.70;49.10;;;;;;7555490;23;20040;-80
2020/12/29 05:27:29;;;;;;;0.32;0.20;;;11.70;49.20;;;;;;7630663;23;20045;-79
2020/12/29 05:30:32;;;;;;;0.55;0.22;;;11.70;49.30;;;;;;7605403;23;20290;-80
2020/12/29 05:33:33;;;;;;;0.75;0.32;;;11.70;49.40;;;;;;7606088;23;20355;-80
2020/12/29 05:36:36;;;;;;;0.28;0.17;;;11.70;49.50;;;;;;7603757;23;20018;-80
2020/12/29 05:39:37;;;;;;;0.47;0.30;;;11.70;49.70;;;;;;7606455;23;20024;-80
2020/12/29 05:42:42;;;;;;;0.10;0.10;;;11.70;49.70;;;;;;7602396;23;20009;-80
2020/12/29 05:45:43;;;;;;;5.15;0.30;;;11.70;49.80;;;;;;7604271;23;20014;-79
2020/12/29 05:48:54;;;;;;;5.03;0.75;;;11.60;50.00;;;;;;7605281;23;20097;-79
2020/12/29 05:51:56;;;;;;;3.30;0.40;;;11.60;49.90;;;;;;7580345;23;20044;-80
2020/12/29 05:54:57;;;;;;;1.10;0.50;;;11.70;50.10;;;;;;7602811;23;20020;-81
2020/12/29 05:58:06;;;;;;;1.70;0.30;;;11.70;50.00;;;;;;7602283;23;20480;-80
2020/12/29 06:01:08;;;;;;;1.45;0.10;;;11.70;50.10;;;;;;7604124;23;20010;-80
2020/12/29 06:04:10;;;;;;;1.08;0.20;;;11.70;50.20;;;;;;7605905;23;20033;-79
2020/12/29 06:07:11;;;;;;;0.50;0.20;;;11.70;50.30;;;;;;7605491;23;20006;-79
2020/12/29 06:10:14;;;;;;;0.10;0.03;;;11.60;50.40;;;;;;7605388;23;20021;-80
2020/12/29 06:13:24;;;;;;;3.13;0.30;;;11.60;50.50;;;;;;7605557;23;20022;-80
2020/12/29 06:16:31;;;;;;;2.95;0.38;;;11.60;50.50;;;;;;7605352;23;20080;-79
2020/12/29 06:19:32;;;;;;;1.33;0.43;;;11.60;50.70;;;;;;7602118;23;20037;-80
2020/12/29 06:22:38;;;;;;;0.17;0.10;;;11.50;50.60;;;;;;7599362;23;20017;-79
2020/12/29 06:25:44;;;;;;;4.05;0.47;;;11.60;50.70;;;;;;7604311;23;20042;-79
2020/12/29 06:28:52;;;;;;;4.85;0.30;;;11.60;50.60;;;;;;7579586;23;20092;-79
2020/12/29 06:31:53;;;;;;;;;;;11.70;50.90;;;;;;7612482;23;20052;-80
2020/12/29 06:34:55;;;;;;;1.08;0.32;;;11.70;50.90;;;;;;7633499;23;19921;-79
2020/12/29 06:38:06;;;;;;;0.57;0.35;;;11.70;50.90;;;;;;7606529;23;20045;-78
2020/12/29 06:41:08;;;;;;;0.55;0.30;;;11.60;51.00;;;;;;7607286;23;20006;-78
2020/12/29 06:44:13;;;;;;;1.98;0.30;;;11.60;51.00;;;;;;7609336;23;20025;-81
2020/12/29 06:47:14;;;;;;;2.65;0.55;;;11.60;51.00;;;;;;7597111;23;20010;-80
2020/12/29 06:50:23;;;;;;;0.85;0.25;;;11.60;51.20;;;;;;7584379;23;20081;-80
2020/12/29 06:53:24;;;;;;;;;;;11.60;51.20;;;;;;7605166;23;20042;-79
2020/12/29 06:56:24;;;;;;;0.10;0.10;;;11.60;51.20;;;;;;7608674;23;19929;-82
2020/12/29 06:59:37;;;;;;;2.03;0.30;;;11.60;51.10;;;;;;7606791;23;20068;-80
2020/12/29 07:02:39;;;;;;;2.97;0.70;;;11.60;51.10;;;;;;7625134;23;20057;-80
2020/12/29 07:05:40;;;;;;;0.17;0.17;;;11.60;51.10;;;;;;7641375;23;20092;-80
2020/12/29 07:08:41;;;;;;;0.20;0.20;;;11.70;51.20;;;;;;7642314;23;20093;-80
2020/12/29 07:12:07;;;;;;;0.22;0.20;;;11.70;51.10;;;;;;7614923;23;20017;-80
2020/12/29 07:15:09;;;;;;;2.95;0.32;;;11.70;51.20;;;;;;7592885;23;20144;-80
2020/12/29 07:18:10;;;;;;;3.30;0.52;;;11.60;51.40;;;;;;7591959;23;20462;-80
2020/12/29 07:21:25;;;;;;;0.03;0.03;;;11.60;51.70;;;;;;7617072;23;20465;-80
2020/12/29 07:24:28;;;;;;;4.43;0.73;;;11.70;51.80;;;;;;7616017;23;20010;-80
2020/12/29 07:27:30;;;;;;;0.15;0.15;;;11.50;51.70;;;;;;7615388;23;20096;-79
2020/12/29 07:30:33;;;;;;;1.23;0.40;;;11.60;51.80;;;;;;7613779;23;20363;-80
2020/12/29 07:33:53;;;;;;;1.13;0.30;;;11.60;51.70;;;;;;7639895;23;20435;-80
2020/12/29 07:36:55;;;;;;;1.02;0.50;;;11.60;52.20;;;;;;7639095;23;20056;-80
2020/12/29 07:39:56;;;;;;;0.20;0.20;;;11.60;51.50;;;;;;7614026;23;20013;-80
2020/12/29 07:42:57;;;;;;;0.10;0.10;;;11.70;51.40;;;;;;7615754;23;20072;-80
2020/12/29 07:45:58;;;;;;;0.50;0.30;;;11.70;51.30;;;;;;7663150;23;20033;-79
2020/12/29 07:49:01;;;;;;;0.57;0.32;;;11.70;51.30;;;;;;7589537;23;20072;-80
2020/12/29 07:52:02;;;;;;;2.33;0.30;;;11.70;51.30;;;;;;7615230;23;20428;-80
2020/12/29 07:55:05;;;;;;;2.67;0.22;;;11.70;51.20;;;;;;7641021;23;20073;-81
2020/12/29 07:58:07;;;;;;;0.43;0.40;;;11.80;51.30;;;;;;7615632;23;20010;-80
2020/12/29 08:01:14;;;;;;;1.45;0.30;;;11.80;51.20;;;;;;7641113;23;20021;-80
2020/12/29 08:04:29;;;;;;;1.67;0.52;;;11.80;51.10;;;;;;7629937;23;20103;-79
2020/12/29 08:07:31;;;;;;;1.13;0.47;;;11.80;51.10;;;;;;7594293;23;20017;-81
2020/12/29 08:10:37;;;;;;;1.45;0.30;;;11.80;51.10;;;;;;7619175;23;20018;-81
2020/12/29 08:13:39;;;;;;;0.13;0.13;;;11.80;51.20;;;;;;7644444;23;20033;-81
2020/12/29 08:16:42;;;;;;;0.50;0.15;;;11.80;51.10;;;;;;7618011;23;20301;-80
2020/12/29 08:19:55;;;;;;;0.55;0.30;;;11.80;51.10;;;;;;7616086;23;20100;-79
2020/12/29 08:23:06;;;;;;;1.33;0.60;;;11.80;51.10;;;;;;7619035;23;20083;-79
2020/12/29 08:26:10;;;;;;;1.63;0.40;;;11.80;51.10;;;;;;7622868;23;20017;-79
2020/12/29 08:29:11;;;;;;;1.75;0.40;;;11.90;51.20;;;;;;7608707;23;20061;-79
2020/12/29 08:32:15;;;;;;;0.65;0.30;;;11.80;51.10;;;;;;7635684;23;20029;-78
2020/12/29 08:35:16;;;;;;;0.55;0.22;;;11.80;51.10;;;;;;7654195;23;20021;-81
2020/12/29 08:39:00;;;;;;;0.30;0.15;;;11.80;51.10;;;;;;7612682;23;20014;-80
2020/12/29 08:42:31;;;;;;;0.20;0.20;;;11.80;51.10;;;;;;7518309;23;20026;-80
2020/12/29 08:45:34;;;;;;;0.93;0.35;;;11.80;50.90;;;;;;7599468;23;20014;-80
2020/12/29 08:49:32;;;;;;;2.47;0.63;;;11.80;51.00;;;;;;7632010;23;20056;-80
2020/12/29 08:52:36;;;;;;;3.83;0.77;;;11.70;51.00;;;;;;7483997;23;20019;-80
2020/12/29 08:56:33;;;;;;;;;;;;;;;;;;;;;
2020/12/29 09:00:00;;;;;;;1.43;0.87;;;11.80;51.10;;;;;;7468760;23;20018;-81
2020/12/29 09:03:29;;;;;;;1.85;0.75;;;11.90;50.90;;;;;;7536287;23;20015;-80
2020/12/29 09:06:30;;;;;;;0.30;0.30;;;11.90;50.80;;;;;;7490156;23;20402;-80
2020/12/29 09:10:03;;;;;;;0.73;0.40;;;12.00;50.70;;;;;;7552758;23;20450;-80
2020/12/29 09:13:12;;;;;;;1.08;0.40;;;12.00;50.70;;;;;;7471916;23;20110;-81
2020/12/29 09:20:49;;;;;;;;;;;;;;;;;;;;;
2020/12/29 09:25:00;;;;;;;2.38;0.40;;;12.00;50.50;;;;;;7315544;23;20028;-81
2020/12/29 09:32:17;;;;;;;1.13;0.50;;;12.10;50.60;;;;;;7200488;24;20031;-81
2020/12/29 09:35:27;;;;;;;2.50;0.65;;;12.20;50.60;;;;;;7205536;24;20109;-81
2020/12/29 09:38:34;;;;;;;5.43;0.85;;;12.30;50.40;;;;;;7172158;24;20432;-80
2020/12/29 09:41:35;;;;;;;1.70;0.52;;;12.30;50.30;;;;;;7221852;24;20019;-80
2020/12/29 09:44:42;;;;;;;1.58;0.40;;;12.30;50.20;;;;;;7252394;24;20185;-81
2020/12/29 09:48:06;;;;;;;2.67;0.90;;;12.30;50.10;;;;;;7183164;24;20105;-80
2020/12/29 09:51:11;;;;;;;1.45;0.73;;;12.30;50.20;;;;;;7202246;24;20104;-81
2020/12/29 09:54:12;;;;;;;1.85;0.45;;;12.30;50.20;;;;;;7136074;24;20109;-81
2020/12/29 09:57:59;;;;;;;1.42;0.47;;;12.40;50.10;;;;;;7214346;24;20037;-80
2020/12/29 10:01:16;;;;;;;1.67;0.57;;;12.50;50.00;;;;;;7217315;24;20021;-81
2020/12/29 10:09:12;;;;;;;1.92;1.00;;;12.70;49.70;;;;;;7289898;23;20083;-80
2020/12/29 10:12:36;;;;;;;0.80;0.45;;;13.00;49.40;;;;;;7362775;23;20028;-81
2020/12/29 10:16:11;;;;;;;1.15;0.70;;;13.30;48.90;;;;;;7333702;23;20013;-82
2020/12/29 10:28:48;;;;;;;2.25;0.73;;;13.90;47.60;;;;;;7020872;24;1990940;-81
2020/12/29 10:32:00;;;;;;;3.13;1.00;;;14.10;47.10;;;;;;7142125;24;20035;-81
2020/12/29 10:35:25;;;;;;;3.65;1.25;;;14.10;46.90;;;;;;7085162;24;20029;-81
2020/12/29 10:38:27;;;;;;;3.95;1.05;;;14.10;47.10;;;;;;6855312;24;4162417;-80
2020/12/29 10:41:40;;;;;;;1.73;0.87;;;13.90;47.00;;;;;;6613890;24;5028295;-80
2020/12/29 10:49:14;;;;;;;1.55;0.60;;;14.20;47.30;;;;;;6809311;24;4821949;-80
2020/12/29 10:56:09;;;;;;;3.30;0.80;;;15.00;45.50;;;;;;6998387;24;20021;-81
2020/12/29 10:59:11;;;;;;;0.75;0.65;;;15.20;45.00;;;;;;7072872;24;20022;-81
2020/12/29 11:02:12;;;;;;;4.88;1.10;;;15.10;44.80;;;;;;7190539;24;20083;-81
2020/12/29 11:05:16;;;;;;;3.03;1.20;;;15.20;45.00;;;;;;7215670;24;20030;-82
2020/12/29 11:08:17;;;;;;;2.42;1.00;;;15.10;44.70;;;;;;7197526;24;20122;-81
2020/12/29 11:11:21;;;;;;;4.60;1.00;;;15.00;44.70;;;;;;7205897;24;20449;-81
2020/12/29 11:14:22;;;;;;;2.63;0.82;;;15.00;44.90;;;;;;7214973;24;20081;-81
2020/12/29 11:17:23;;;;;;;1.58;0.80;;;15.00;44.60;;;;;;7271961;24;20096;-81
2020/12/29 11:20:24;;;;;;;2.38;1.60;;;15.20;44.30;;;;;;7319058;24;20405;-81
2020/12/29 11:23:27;;;;;;;6.15;0.82;;;15.50;43.50;;;;;;7298502;24;20062;-81
2020/12/29 11:26:28;;;;;;;2.40;1.30;;;16.10;42.60;;;;;;7456558;23;20016;-81
2020/12/29 11:29:31;;;;;;;1.15;0.85;;;16.60;41.70;;;;;;7511622;23;20046;-81
2020/12/29 11:32:32;;;;;;;6.75;0.90;;;17.10;40.70;;;;;;7569193;23;20034;-81
2020/12/29 11:35:33;;;;;;;1.85;0.73;;;17.30;40.00;;;;;;7565688;23;20014;-80
2020/12/29 11:38:34;;;;;;;5.43;1.38;;;17.10;40.30;;;;;;7547236;23;20019;-82
2020/12/29 11:41:35;;;;;;;2.85;0.88;;;17.00;40.50;;;;;;7554750;23;20358;-81
2020/12/29 11:44:36;;;;;;;3.50;1.20;;;16.90;40.40;;;;;;7553957;23;20015;-81
2020/12/29 11:47:37;;;;;;;3.00;1.30;;;16.90;40.50;;;;;;7546685;23;20081;-81
2020/12/29 11:50:38;;;;;;;2.60;0.88;;;16.80;40.60;;;;;;7571957;23;20018;-81
2020/12/29 11:53:42;;;;;;;0.93;0.50;;;16.80;40.60;;;;;;7570680;23;20036;-80
2020/12/29 11:56:48;;;;;;;3.58;0.90;;;16.60;40.50;;;;;;7546879;23;20101;-81
2020/12/29 11:59:49;;;;;;;2.10;0.80;;;16.50;40.70;;;;;;7569803;23;20022;-82
2020/12/29 12:02:51;;;;;;;0.75;0.60;;;16.50;40.80;;;;;;7551406;23;20030;-81
2020/12/29 12:05:52;;;;;;;4.20;0.98;;;16.40;40.80;;;;;;7648610;23;20024;-81
2020/12/29 12:08:53;;;;;;;12.52;1.30;;;16.30;40.90;;;;;;7653622;23;20017;-81
2020/12/29 12:11:54;;;;;;;1.52;0.90;;;16.30;41.10;;;;;;7630909;23;20076;-81
2020/12/29 12:14:55;;;;;;;2.05;0.90;;;16.20;41.10;;;;;;7609755;23;20006;-81
2020/12/29 12:17:57;;;;;;;1.40;0.55;;;16.20;40.60;;;;;;7629486;23;20024;-81
2020/12/29 12:21:00;;;;;;;2.92;1.00;;;16.10;40.20;;;;;;7622348;23;20024;-81
2020/12/29 12:24:02;;;;;;;2.35;0.70;;;16.10;39.80;;;;;;7621909;23;20409;-80
2020/12/29 12:27:03;;;;;;;0.50;0.30;;;16.00;39.50;;;;;;7580918;23;20024;-79
2020/12/29 12:30:04;;;;;;;2.42;0.77;;;16.10;39.30;;;;;;7595303;23;20391;-81
2020/12/29 12:33:05;;;;;;;0.40;0.22;;;16.10;38.50;;;;;;7644739;23;20088;-81
2020/12/29 12:36:06;;;;;;;0.47;0.30;;;16.00;38.40;;;;;;7644230;23;20147;-79
2020/12/29 12:39:09;;;;;;;0.93;0.55;;;16.00;37.90;;;;;;7619475;23;20087;-80
2020/12/29 12:42:11;;;;;;;1.10;0.22;;;16.00;37.70;;;;;;7619295;23;20305;-80
2020/12/29 12:45:12;;;;;;;6.53;0.70;;;15.90;37.50;;;;;;7619469;23;20297;-79
2020/12/29 12:48:13;;;;;;;0.40;0.40;;;15.80;37.10;;;;;;7620657;23;20009;-80
2020/12/29 12:51:14;;;;;;;0.70;0.30;;;15.70;37.20;;;;;;7605385;23;20032;-81
2020/12/29 12:54:16;;;;;;;0.28;0.28;;;15.70;37.30;;;;;;7624629;23;20028;-80
2020/12/29 12:57:17;;;;;;;1.38;0.50;;;15.60;37.60;;;;;;7622704;23;20021;-81
2020/12/29 13:00:18;;;;;;;1.27;0.50;;;15.50;37.40;;;;;;7618379;23;20018;-80
2020/12/29 13:03:19;;;;;;;0.40;0.38;;;15.50;37.80;;;;;;7618499;23;20080;-80
2020/12/29 13:06:28;;;;;;;1.00;0.43;;;15.50;37.70;;;;;;7618966;23;20017;-81
2020/12/29 13:09:30;;;;;;;0.25;0.25;;;15.40;37.90;;;;;;7641956;23;20018;-81
2020/12/29 13:12:32;;;;;;;2.17;0.57;;;15.30;38.20;;;;;;7641109;23;20084;-82
2020/12/29 13:15:33;;;;;;;1.27;0.50;;;15.30;38.30;;;;;;7616659;23;20075;-81
2020/12/29 13:18:34;;;;;;;0.80;0.50;;;15.10;38.30;;;;;;7592844;23;20358;-81
2020/12/29 13:21:35;;;;;;;1.35;0.60;;;15.10;38.60;;;;;;7594994;23;20121;-81
2020/12/29 13:24:36;;;;;;;0.70;0.55;;;15.00;38.70;;;;;;7643302;23;20033;-81
2020/12/29 13:27:37;;;;;;;2.90;0.80;;;15.00;38.70;;;;;;7618673;23;20028;-81
2020/12/29 13:30:39;;;;;;;1.27;0.63;;;14.90;38.60;;;;;;7581682;23;20408;-81
2020/12/29 13:33:40;;;;;;;1.02;0.35;;;14.90;38.90;;;;;;7643335;23;20021;-81
2020/12/29 13:36:42;;;;;;;3.75;0.90;;;14.90;39.30;;;;;;7608273;23;20041;-80
2020/12/29 13:40:03;;;;;;;1.55;1.00;;;14.80;39.80;;;;;;7535915;23;20504;-82
2020/12/29 14:30:20;;;;;;;4.82;1.60;;;13.70;44.90;;;;;;7457689;23;21164;-81
2020/12/29 14:34:44;;;;;;;3.17;1.08;;;13.70;44.90;;;;;;7432132;23;20018;-81
2020/12/29 15:07:39;;;;;;;;;;;;;;;;;;;;;
2020/12/29 15:28:47;;;;;;;2.92;1.20;;;13.30;46.40;;;;;;6246731;25;5017125;-81
2020/12/29 15:31:48;;;;;;;4.72;1.63;;;13.10;46.90;;;;;;7063281;24;20455;-80
2020/12/29 15:34:50;;;;;;;5.18;1.30;;;13.00;47.00;;;;;;7131237;24;20027;-80
2020/12/29 15:37:51;;;;;;;6.95;2.25;;;13.00;47.10;;;;;;7195338;24;20037;-81
2020/12/29 15:40:52;;;;;;;6.28;1.70;;;13.00;47.30;;;;;;7264353;24;20022;-80
2020/12/29 15:43:54;;;;;;;2.75;1.42;;;13.00;47.40;;;;;;7255158;24;20191;-81
2020/12/29 15:46:55;;;;;;;7.10;1.77;;;12.90;47.80;;;;;;7264573;24;20439;-81
2020/12/29 15:50:15;;;;;;;15.05;4.68;;;12.90;48.20;;;;;;7328958;24;20048;-82
2020/12/29 15:53:18;;;;;;;8.15;3.65;;;12.80;48.50;;;;;;7334282;24;20021;-82
2020/12/29 15:56:20;;;;;;;6.63;2.33;;;12.80;48.70;;;;;;7389987;24;20047;-81
2020/12/29 15:59:22;;;;;;;10.38;2.28;;;12.70;48.90;;;;;;7426820;24;20016;-80
2020/12/29 16:02:23;;;;;;;4.63;1.80;;;12.70;49.00;;;;;;7427606;24;20028;-81
2020/12/29 16:05:24;;;;;;;5.07;2.10;;;12.60;49.80;;;;;;7433043;23;20031;-81
2020/12/29 16:08:25;;;;;;;4.97;1.80;;;12.60;49.30;;;;;;7480285;23;20015;-82
2020/12/29 16:11:30;;;;;;;5.40;2.00;;;12.50;49.50;;;;;;7500275;23;20029;-80
2020/12/29 16:14:31;;;;;;;5.13;2.08;;;12.50;49.50;;;;;;7515990;23;20163;-81
2020/12/29 16:17:32;;;;;;;3.17;1.65;;;12.50;49.50;;;;;;7510519;23;20035;-81
2020/12/29 16:20:33;;;;;;;3.53;1.70;;;12.60;49.50;;;;;;7548764;23;20403;-80
2020/12/29 16:23:34;;;;;;;3.80;1.48;;;12.30;49.70;;;;;;7539184;23;20025;-80
2020/12/29 16:26:39;;;;;;;2.85;1.80;;;12.50;50.00;;;;;;7544319;23;20022;-80
2020/12/29 16:29:40;;;;;;;4.47;1.67;;;12.50;50.40;;;;;;7547104;23;20018;-81
2020/12/29 16:32:42;;;;;;;7.07;2.35;;;12.30;50.40;;;;;;7571933;23;20015;-82
2020/12/29 16:35:44;;;;;;;4.22;2.25;;;12.30;50.40;;;;;;7547863;23;20051;-80
2020/12/29 16:38:45;;;;;;;3.03;1.70;;;12.30;50.70;;;;;;7546432;23;20030;-80
2020/12/29 16:41:47;;;;;;;4.95;2.08;;;12.20;50.90;;;;;;7546035;23;20426;-81
2020/12/29 16:45:17;;;;;;;3.40;1.48;;;12.20;51.10;;;;;;7543279;23;20019;-82
2020/12/29 16:48:19;;;;;;;4.40;1.70;;;12.20;51.30;;;;;;7412494;23;20068;-80
2020/12/29 16:51:24;;;;;;;3.92;1.77;;;12.10;51.30;;;;;;7438553;23;20012;-82
2020/12/29 16:54:26;;;;;;;6.53;2.10;;;12.10;51.40;;;;;;7439249;23;20015;-81
2020/12/29 16:57:27;;;;;;;4.03;1.63;;;12.10;51.30;;;;;;7465288;23;20028;-80
2020/12/29 17:00:29;;;;;;;3.58;1.73;;;12.10;51.30;;;;;;7442604;23;20020;-81
2020/12/29 17:03:31;;;;;;;4.75;1.67;;;12.10;51.10;;;;;;7444053;23;20023;-79
2020/12/29 17:06:36;;;;;;;3.85;1.73;;;12.10;51.10;;;;;;7439839;23;20115;-81
2020/12/29 17:09:37;;;;;;;5.15;1.92;;;12.10;51.00;;;;;;7417805;23;20201;-81
2020/12/29 17:12:38;;;;;;;3.78;1.75;;;12.10;50.90;;;;;;7465826;23;20117;-81
2020/12/29 17:15:39;;;;;;;3.13;1.70;;;12.10;50.90;;;;;;7440198;23;20114;-82
2020/12/29 17:18:41;;;;;;;5.70;1.80;;;12.10;50.90;;;;;;7438720;23;20039;-81
2020/12/29 17:21:42;;;;;;;8.70;1.63;;;12.10;50.90;;;;;;7415972;23;20024;-80
2020/12/29 17:24:43;;;;;;;4.07;1.90;;;12.10;50.90;;;;;;7518443;23;20020;-81
2020/12/29 17:27:45;;;;;;;4.15;1.77;;;12.10;51.00;;;;;;7533489;23;20034;-80
2020/12/29 17:30:46;;;;;;;2.10;1.30;;;12.00;51.10;;;;;;7564682;23;20307;-80
2020/12/29 17:33:47;;;;;;;4.13;1.80;;;12.00;51.20;;;;;;7572386;23;20029;-80
2020/12/29 17:36:51;;;;;;;7.10;2.40;;;11.90;51.40;;;;;;7569036;23;20050;-80
2020/12/29 17:39:52;;;;;;;8.43;2.72;;;11.90;51.50;;;;;;7593198;23;20010;-80
2020/12/29 17:42:53;;;;;;;3.75;1.48;;;11.90;51.50;;;;;;7572405;23;20454;-80
2020/12/29 17:45:54;;;;;;;4.85;1.63;;;11.80;51.50;;;;;;7571546;23;20022;-81
2020/12/29 17:48:55;;;;;;;4.88;1.90;;;11.80;51.50;;;;;;7572678;23;20010;-80
2020/12/29 17:51:56;;;;;;;7.07;1.70;;;11.80;51.60;;;;;;7578054;23;20030;-80
2020/12/29 17:54:57;;;;;;;7.18;2.95;;;11.80;51.40;;;;;;7596330;23;20046;-80
2020/12/29 17:57:59;;;;;;;7.03;2.70;;;11.80;51.40;;;;;;7596262;23;20022;-79
2020/12/29 18:01:02;;;;;;;5.72;2.67;;;11.70;51.30;;;;;;7583259;23;20037;-81
2020/12/29 18:04:04;;;;;;;13.00;3.35;;;11.80;51.30;;;;;;7548266;23;20085;-79
2020/12/29 18:07:05;;;;;;;10.32;3.97;;;11.70;51.20;;;;;;7571949;23;20109;-81
2020/12/29 18:10:06;;;;;;;11.10;2.75;;;11.80;51.30;;;;;;7571678;23;20018;-81
2020/12/29 18:13:07;;;;;;;8.65;2.47;;;11.70;51.20;;;;;;7571465;23;20073;-79